sensor_id;sensor_type;location;lat;lon;timestamp;P1;durP1;ratioP1;P2;durP2;ratioP2
40322;SDS011;26030;51.164;17.100;2022-08-21T00:00:54;6.90;;;4.20;;
40322;SDS011;26030;51.164;17.100;2022-08-21T00:05:57;5.20;;;4.30;;
40322;SDS011;26030;51.164;17.100;2022-08-21T00:10:59;4.90;;;4.40;;
40322;SDS011;26030;51.164;17.100;2022-08-21T00:16:02;5.90;;;4.40;;
40322;SDS011;26030;51.164;17.100;2022-08-21T00:21:05;8.40;;;5.10;;
40322;SDS011;26030;51.164;17.100;2022-08-21T00:26:09;4.90;;;4.20;;
40322;SDS011;26030;51.164;17.100;2022-08-21T00:31:12;6.00;;;5.00;;
40322;SDS011;26030;51.164;17.100;2022-08-21T00:36:14;6.50;;;4.80;;
40322;SDS011;26030;51.164;17.100;2022-08-21T00:41:17;5.70;;;5.00;;
40322;SDS011;26030;51.164;17.100;2022-08-21T00:46:40;6.60;;;4.70;;
40322;SDS011;26030;51.164;17.100;2022-08-21T00:51:54;6.50;;;4.80;;
40322;SDS011;26030;51.164;17.100;2022-08-21T00:57:00;5.20;;;4.60;;
40322;SDS011;26030;51.164;17.100;2022-08-21T01:02:06;5.80;;;4.10;;
40322;SDS011;26030;51.164;17.100;2022-08-21T01:07:09;6.20;;;4.30;;
40322;SDS011;26030;51.164;17.100;2022-08-21T01:12:12;8.30;;;5.30;;
40322;SDS011;26030;51.164;17.100;2022-08-21T01:17:17;7.50;;;4.40;;
40322;SDS011;26030;51.164;17.100;2022-08-21T01:22:20;7.00;;;4.30;;
40322;SDS011;26030;51.164;17.100;2022-08-21T01:27:22;6.90;;;4.00;;
40322;SDS011;26030;51.164;17.100;2022-08-21T01:32:25;5.30;;;4.20;;
40322;SDS011;26030;51.164;17.100;2022-08-21T01:37:27;4.60;;;3.40;;
40322;SDS011;26030;51.164;17.100;2022-08-21T01:42:29;5.20;;;3.50;;
40322;SDS011;26030;51.164;17.100;2022-08-21T01:47:32;3.80;;;3.40;;
40322;SDS011;26030;51.164;17.100;2022-08-21T01:52:34;7.30;;;3.50;;
40322;SDS011;26030;51.164;17.100;2022-08-21T01:57:37;3.90;;;3.10;;
40322;SDS011;26030;51.164;17.100;2022-08-21T02:02:40;7.00;;;3.30;;
40322;SDS011;26030;51.164;17.100;2022-08-21T02:07:47;6.70;;;3.10;;
40322;SDS011;26030;51.164;17.100;2022-08-21T02:12:50;5.20;;;3.00;;
40322;SDS011;26030;51.164;17.100;2022-08-21T02:17:57;4.20;;;3.20;;
40322;SDS011;26030;51.164;17.100;2022-08-21T02:23:00;4.90;;;3.00;;
40322;SDS011;26030;51.164;17.100;2022-08-21T02:28:08;5.20;;;2.90;;
40322;SDS011;26030;51.164;17.100;2022-08-21T02:33:11;3.70;;;2.70;;
40322;SDS011;26030;51.164;17.100;2022-08-21T02:38:18;4.10;;;2.30;;
40322;SDS011;26030;51.164;17.100;2022-08-21T02:43:23;2.50;;;2.00;;
40322;SDS011;26030;51.164;17.100;2022-08-21T02:48:29;2.60;;;2.30;;
40322;SDS011;26030;51.164;17.100;2022-08-21T02:53:33;2.90;;;2.00;;
40322;SDS011;26030;51.164;17.100;2022-08-21T02:58:39;3.10;;;1.80;;
40322;SDS011;26030;51.164;17.100;2022-08-21T03:03:43;2.70;;;1.80;;
40322;SDS011;26030;51.164;17.100;2022-08-21T03:08:46;3.20;;;1.60;;
40322;SDS011;26030;51.164;17.100;2022-08-21T03:13:48;2.10;;;1.70;;
40322;SDS011;26030;51.164;17.100;2022-08-21T03:18:51;2.60;;;1.50;;
40322;SDS011;26030;51.164;17.100;2022-08-21T03:23:55;2.80;;;1.60;;
40322;SDS011;26030;51.164;17.100;2022-08-21T03:28:57;1.90;;;1.30;;
40322;SDS011;26030;51.164;17.100;2022-08-21T03:33:59;2.50;;;1.40;;
40322;SDS011;26030;51.164;17.100;2022-08-21T03:39:03;2.80;;;1.40;;
40322;SDS011;26030;51.164;17.100;2022-08-21T03:44:05;2.90;;;1.50;;
40322;SDS011;26030;51.164;17.100;2022-08-21T03:49:08;1.70;;;1.30;;
40322;SDS011;26030;51.164;17.100;2022-08-21T03:54:10;2.60;;;1.30;;
40322;SDS011;26030;51.164;17.100;2022-08-21T03:59:12;2.20;;;1.50;;
40322;SDS011;26030;51.164;17.100;2022-08-21T04:04:14;2.00;;;1.50;;
40322;SDS011;26030;51.164;17.100;2022-08-21T04:09:18;6.90;;;1.90;;
40322;SDS011;26030;51.164;17.100;2022-08-21T04:14:20;2.20;;;1.50;;
40322;SDS011;26030;51.164;17.100;2022-08-21T04:19:22;2.20;;;1.50;;
40322;SDS011;26030;51.164;17.100;2022-08-21T04:24:25;2.60;;;1.60;;
40322;SDS011;26030;51.164;17.100;2022-08-21T04:29:31;2.30;;;1.40;;
40322;SDS011;26030;51.164;17.100;2022-08-21T04:34:35;2.60;;;1.60;;
40322;SDS011;26030;51.164;17.100;2022-08-21T04:39:38;2.40;;;1.50;;
40322;SDS011;26030;51.164;17.100;2022-08-21T04:44:40;5.70;;;1.70;;
40322;SDS011;26030;51.164;17.100;2022-08-21T04:49:44;4.40;;;1.50;;
40322;SDS011;26030;51.164;17.100;2022-08-21T04:54:47;3.90;;;1.50;;
40322;SDS011;26030;51.164;17.100;2022-08-21T04:59:56;2.20;;;1.30;;
40322;SDS011;26030;51.164;17.100;2022-08-21T05:04:59;2.20;;;1.40;;
40322;SDS011;26030;51.164;17.100;2022-08-21T05:10:03;1.80;;;1.40;;
40322;SDS011;26030;51.164;17.100;2022-08-21T05:15:05;2.40;;;1.40;;
40322;SDS011;26030;51.164;17.100;2022-08-21T05:20:13;1.90;;;1.30;;
40322;SDS011;26030;51.164;17.100;2022-08-21T05:25:16;1.80;;;1.40;;
40322;SDS011;26030;51.164;17.100;2022-08-21T05:30:23;2.00;;;1.10;;
40322;SDS011;26030;51.164;17.100;2022-08-21T05:35:27;2.00;;;1.50;;
40322;SDS011;26030;51.164;17.100;2022-08-21T05:40:30;1.80;;;1.30;;
40322;SDS011;26030;51.164;17.100;2022-08-21T05:45:33;2.80;;;1.50;;
40322;SDS011;26030;51.164;17.100;2022-08-21T05:50:46;2.20;;;1.40;;
40322;SDS011;26030;51.164;17.100;2022-08-21T05:55:49;2.20;;;1.50;;
40322;SDS011;26030;51.164;17.100;2022-08-21T06:00:52;2.20;;;1.40;;
40322;SDS011;26030;51.164;17.100;2022-08-21T06:05:55;1.90;;;1.50;;
40322;SDS011;26030;51.164;17.100;2022-08-21T06:10:59;2.50;;;1.60;;
40322;SDS011;26030;51.164;17.100;2022-08-21T06:16:06;3.10;;;1.50;;
40322;SDS011;26030;51.164;17.100;2022-08-21T06:21:11;1.80;;;1.40;;
40322;SDS011;26030;51.164;17.100;2022-08-21T06:26:14;3.60;;;1.50;;
40322;SDS011;26030;51.164;17.100;2022-08-21T06:31:22;2.80;;;1.60;;
40322;SDS011;26030;51.164;17.100;2022-08-21T06:36:24;2.10;;;1.40;;
40322;SDS011;26030;51.164;17.100;2022-08-21T06:41:26;3.20;;;1.30;;
40322;SDS011;26030;51.164;17.100;2022-08-21T06:46:30;2.90;;;1.50;;
40322;SDS011;26030;51.164;17.100;2022-08-21T06:51:34;2.10;;;1.40;;
40322;SDS011;26030;51.164;17.100;2022-08-21T06:56:40;3.40;;;1.60;;
40322;SDS011;26030;51.164;17.100;2022-08-21T07:01:43;4.00;;;1.90;;
40322;SDS011;26030;51.164;17.100;2022-08-21T07:06:46;2.20;;;1.50;;
40322;SDS011;26030;51.164;17.100;2022-08-21T07:11:53;3.00;;;1.80;;
40322;SDS011;26030;51.164;17.100;2022-08-21T07:16:57;3.40;;;2.10;;
40322;SDS011;26030;51.164;17.100;2022-08-21T07:22:01;3.90;;;2.00;;
40322;SDS011;26030;51.164;17.100;2022-08-21T07:27:04;3.90;;;2.10;;
40322;SDS011;26030;51.164;17.100;2022-08-21T07:32:16;3.40;;;2.00;;
40322;SDS011;26030;51.164;17.100;2022-08-21T07:37:22;4.70;;;2.50;;
40322;SDS011;26030;51.164;17.100;2022-08-21T07:42:25;4.70;;;2.40;;
40322;SDS011;26030;51.164;17.100;2022-08-21T07:47:28;4.70;;;2.10;;
40322;SDS011;26030;51.164;17.100;2022-08-21T07:52:52;7.00;;;2.10;;
40322;SDS011;26030;51.164;17.100;2022-08-21T07:57:55;4.80;;;2.20;;
40322;SDS011;26030;51.164;17.100;2022-08-21T08:02:58;3.30;;;2.10;;
40322;SDS011;26030;51.164;17.100;2022-08-21T08:08:04;6.30;;;2.40;;
40322;SDS011;26030;51.164;17.100;2022-08-21T08:13:10;5.00;;;1.90;;
40322;SDS011;26030;51.164;17.100;2022-08-21T08:18:13;4.80;;;2.50;;
40322;SDS011;26030;51.164;17.100;2022-08-21T08:23:30;4.60;;;2.20;;
40322;SDS011;26030;51.164;17.100;2022-08-21T08:28:34;4.80;;;2.40;;
40322;SDS011;26030;51.164;17.100;2022-08-21T08:33:37;4.20;;;2.30;;
40322;SDS011;26030;51.164;17.100;2022-08-21T08:38:40;3.70;;;1.90;;
40322;SDS011;26030;51.164;17.100;2022-08-21T08:43:53;3.00;;;1.70;;
40322;SDS011;26030;51.164;17.100;2022-08-21T08:49:15;3.70;;;2.00;;
40322;SDS011;26030;51.164;17.100;2022-08-21T08:54:33;4.20;;;2.00;;
40322;SDS011;26030;51.164;17.100;2022-08-21T08:59:43;2.70;;;1.80;;
40322;SDS011;26030;51.164;17.100;2022-08-21T09:04:47;3.20;;;1.70;;
40322;SDS011;26030;51.164;17.100;2022-08-21T09:10:19;3.10;;;1.80;;
40322;SDS011;26030;51.164;17.100;2022-08-21T09:21:35;3.10;;;1.60;;
40322;SDS011;26030;51.164;17.100;2022-08-21T09:26:24;4.00;;;1.70;;
40322;SDS011;26030;51.164;17.100;2022-08-21T09:31:34;2.80;;;1.50;;
40322;SDS011;26030;51.164;17.100;2022-08-21T09:36:44;2.40;;;1.60;;
40322;SDS011;26030;51.164;17.100;2022-08-21T09:42:03;2.70;;;1.40;;
40322;SDS011;26030;51.164;17.100;2022-08-21T09:47:10;2.80;;;1.70;;
40322;SDS011;26030;51.164;17.100;2022-08-21T09:52:23;3.40;;;1.60;;
40322;SDS011;26030;51.164;17.100;2022-08-21T09:57:30;4.50;;;1.60;;
40322;SDS011;26030;51.164;17.100;2022-08-21T10:02:51;3.50;;;1.40;;
40322;SDS011;26030;51.164;17.100;2022-08-21T10:07:55;2.70;;;1.50;;
40322;SDS011;26030;51.164;17.100;2022-08-21T10:18:30;2.80;;;1.60;;
40322;SDS011;26030;51.164;17.100;2022-08-21T10:29:35;3.00;;;1.60;;
40322;SDS011;26030;51.164;17.100;2022-08-21T10:40:22;3.90;;;1.80;;
40322;SDS011;26030;51.164;17.100;2022-08-21T10:45:59;3.50;;;2.10;;
40322;SDS011;26030;51.164;17.100;2022-08-21T10:51:40;3.70;;;1.80;;
40322;SDS011;26030;51.164;17.100;2022-08-21T10:56:47;3.30;;;1.90;;
40322;SDS011;26030;51.164;17.100;2022-08-21T11:02:27;3.70;;;1.80;;
40322;SDS011;26030;51.164;17.100;2022-08-21T11:07:57;4.80;;;1.90;;
40322;SDS011;26030;51.164;17.100;2022-08-21T11:13:24;3.80;;;2.00;;
40322;SDS011;26030;51.164;17.100;2022-08-21T11:19:02;4.30;;;1.90;;
40322;SDS011;26030;51.164;17.100;2022-08-21T11:24:30;4.00;;;2.10;;
40322;SDS011;26030;51.164;17.100;2022-08-21T11:29:39;4.50;;;1.70;;
40322;SDS011;26030;51.164;17.100;2022-08-21T11:40:21;5.10;;;1.80;;
40322;SDS011;26030;51.164;17.100;2022-08-21T11:50:31;4.70;;;2.20;;
40322;SDS011;26030;51.164;17.100;2022-08-21T12:05:58;2.80;;;1.70;;
40322;SDS011;26030;51.164;17.100;2022-08-21T12:16:33;5.10;;;2.20;;
40322;SDS011;26030;51.164;17.100;2022-08-21T12:26:59;4.80;;;2.80;;
40322;SDS011;26030;51.164;17.100;2022-08-21T12:37:19;5.50;;;2.60;;
40322;SDS011;26030;51.164;17.100;2022-08-21T12:42:37;3.80;;;2.70;;
40322;SDS011;26030;51.164;17.100;2022-08-21T12:47:48;6.40;;;2.70;;
40322;SDS011;26030;51.164;17.100;2022-08-21T12:53:00;4.00;;;2.70;;
40322;SDS011;26030;51.164;17.100;2022-08-21T12:58:05;4.90;;;2.50;;
40322;SDS011;26030;51.164;17.100;2022-08-21T13:03:08;5.40;;;2.40;;
40322;SDS011;26030;51.164;17.100;2022-08-21T13:08:12;5.90;;;3.10;;
40322;SDS011;26030;51.164;17.100;2022-08-21T13:13:20;5.90;;;2.60;;
40322;SDS011;26030;51.164;17.100;2022-08-21T13:18:33;4.70;;;2.50;;
40322;SDS011;26030;51.164;17.100;2022-08-21T13:23:36;5.30;;;2.70;;
40322;SDS011;26030;51.164;17.100;2022-08-21T13:28:38;5.60;;;3.00;;
40322;SDS011;26030;51.164;17.100;2022-08-21T13:33:41;5.00;;;2.60;;
40322;SDS011;26030;51.164;17.100;2022-08-21T13:38:44;4.30;;;2.60;;
40322;SDS011;26030;51.164;17.100;2022-08-21T13:44:00;5.10;;;2.70;;
40322;SDS011;26030;51.164;17.100;2022-08-21T13:49:05;4.90;;;3.10;;
40322;SDS011;26030;51.164;17.100;2022-08-21T13:54:39;4.20;;;2.70;;
40322;SDS011;26030;51.164;17.100;2022-08-21T13:59:41;4.40;;;2.70;;
40322;SDS011;26030;51.164;17.100;2022-08-21T14:04:54;6.20;;;2.80;;
40322;SDS011;26030;51.164;17.100;2022-08-21T14:10:18;5.00;;;2.60;;
40322;SDS011;26030;51.164;17.100;2022-08-21T14:15:28;4.30;;;2.80;;
40322;SDS011;26030;51.164;17.100;2022-08-21T14:20:34;5.80;;;3.00;;
40322;SDS011;26030;51.164;17.100;2022-08-21T14:25:43;5.00;;;2.90;;
40322;SDS011;26030;51.164;17.100;2022-08-21T14:30:47;4.50;;;2.80;;
40322;SDS011;26030;51.164;17.100;2022-08-21T14:35:53;5.00;;;3.00;;
40322;SDS011;26030;51.164;17.100;2022-08-21T14:41:03;5.60;;;2.90;;
40322;SDS011;26030;51.164;17.100;2022-08-21T14:46:12;4.90;;;2.80;;
40322;SDS011;26030;51.164;17.100;2022-08-21T14:51:15;5.70;;;2.90;;
40322;SDS011;26030;51.164;17.100;2022-08-21T14:56:19;4.20;;;2.90;;
40322;SDS011;26030;51.164;17.100;2022-08-21T15:01:27;5.90;;;3.00;;
40322;SDS011;26030;51.164;17.100;2022-08-21T15:06:29;4.90;;;3.20;;
40322;SDS011;26030;51.164;17.100;2022-08-21T15:11:32;5.10;;;3.00;;
40322;SDS011;26030;51.164;17.100;2022-08-21T15:16:44;6.00;;;3.70;;
40322;SDS011;26030;51.164;17.100;2022-08-21T15:21:46;4.80;;;3.00;;
40322;SDS011;26030;51.164;17.100;2022-08-21T15:26:49;4.60;;;3.10;;
40322;SDS011;26030;51.164;17.100;2022-08-21T15:32:00;5.80;;;3.30;;
40322;SDS011;26030;51.164;17.100;2022-08-21T15:37:03;4.70;;;3.10;;
40322;SDS011;26030;51.164;17.100;2022-08-21T15:42:11;5.40;;;3.10;;
40322;SDS011;26030;51.164;17.100;2022-08-21T15:47:17;4.90;;;2.90;;
40322;SDS011;26030;51.164;17.100;2022-08-21T15:52:21;5.90;;;3.10;;
40322;SDS011;26030;51.164;17.100;2022-08-21T15:57:25;5.80;;;2.80;;
40322;SDS011;26030;51.164;17.100;2022-08-21T16:02:33;7.90;;;3.40;;
40322;SDS011;26030;51.164;17.100;2022-08-21T16:07:36;4.60;;;3.00;;
40322;SDS011;26030;51.164;17.100;2022-08-21T16:12:43;5.60;;;2.90;;
40322;SDS011;26030;51.164;17.100;2022-08-21T16:17:50;4.40;;;2.90;;
40322;SDS011;26030;51.164;17.100;2022-08-21T16:22:55;4.20;;;2.70;;
40322;SDS011;26030;51.164;17.100;2022-08-21T16:27:59;5.10;;;3.10;;
40322;SDS011;26030;51.164;17.100;2022-08-21T16:33:04;6.50;;;2.90;;
40322;SDS011;26030;51.164;17.100;2022-08-21T16:38:07;3.60;;;2.50;;
40322;SDS011;26030;51.164;17.100;2022-08-21T16:43:09;5.60;;;2.70;;
40322;SDS011;26030;51.164;17.100;2022-08-21T16:48:12;5.50;;;2.80;;
40322;SDS011;26030;51.164;17.100;2022-08-21T16:53:14;3.20;;;2.20;;
40322;SDS011;26030;51.164;17.100;2022-08-21T16:58:28;3.60;;;2.50;;
40322;SDS011;26030;51.164;17.100;2022-08-21T17:03:43;2.90;;;2.10;;
40322;SDS011;26030;51.164;17.100;2022-08-21T17:08:47;4.50;;;2.10;;
40322;SDS011;26030;51.164;17.100;2022-08-21T17:13:55;3.20;;;2.00;;
40322;SDS011;26030;51.164;17.100;2022-08-21T17:18:59;4.40;;;2.00;;
40322;SDS011;26030;51.164;17.100;2022-08-21T17:24:01;3.40;;;2.10;;
40322;SDS011;26030;51.164;17.100;2022-08-21T17:29:04;3.40;;;1.80;;
40322;SDS011;26030;51.164;17.100;2022-08-21T17:34:11;2.80;;;1.60;;
40322;SDS011;26030;51.164;17.100;2022-08-21T17:39:15;3.30;;;1.70;;
40322;SDS011;26030;51.164;17.100;2022-08-21T17:44:31;2.90;;;1.60;;
40322;SDS011;26030;51.164;17.100;2022-08-21T17:49:35;3.20;;;1.50;;
40322;SDS011;26030;51.164;17.100;2022-08-21T17:54:37;2.50;;;1.60;;
40322;SDS011;26030;51.164;17.100;2022-08-21T17:59:42;4.90;;;1.90;;
40322;SDS011;26030;51.164;17.100;2022-08-21T18:04:44;6.20;;;2.00;;
40322;SDS011;26030;51.164;17.100;2022-08-21T18:09:47;4.70;;;1.50;;
40322;SDS011;26030;51.164;17.100;2022-08-21T18:14:50;3.40;;;1.60;;
40322;SDS011;26030;51.164;17.100;2022-08-21T18:19:53;4.20;;;1.70;;
40322;SDS011;26030;51.164;17.100;2022-08-21T18:24:56;3.20;;;2.00;;
40322;SDS011;26030;51.164;17.100;2022-08-21T18:29:59;3.90;;;2.10;;
40322;SDS011;26030;51.164;17.100;2022-08-21T18:35:05;5.10;;;2.00;;
40322;SDS011;26030;51.164;17.100;2022-08-21T18:40:12;4.50;;;1.80;;
40322;SDS011;26030;51.164;17.100;2022-08-21T18:45:19;4.00;;;1.90;;
40322;SDS011;26030;51.164;17.100;2022-08-21T18:50:24;3.40;;;1.90;;
40322;SDS011;26030;51.164;17.100;2022-08-21T18:55:28;6.40;;;1.90;;
40322;SDS011;26030;51.164;17.100;2022-08-21T19:00:35;3.70;;;1.60;;
40322;SDS011;26030;51.164;17.100;2022-08-21T19:05:46;3.30;;;1.80;;
40322;SDS011;26030;51.164;17.100;2022-08-21T19:10:50;4.90;;;1.60;;
40322;SDS011;26030;51.164;17.100;2022-08-21T19:15:56;5.00;;;2.30;;
40322;SDS011;26030;51.164;17.100;2022-08-21T19:21:05;2.70;;;1.60;;
40322;SDS011;26030;51.164;17.100;2022-08-21T19:26:09;3.10;;;1.80;;
40322;SDS011;26030;51.164;17.100;2022-08-21T19:31:18;2.70;;;1.90;;
40322;SDS011;26030;51.164;17.100;2022-08-21T19:36:32;4.10;;;2.00;;
40322;SDS011;26030;51.164;17.100;2022-08-21T19:41:38;2.50;;;1.90;;
40322;SDS011;26030;51.164;17.100;2022-08-21T19:46:54;3.30;;;1.90;;
40322;SDS011;26030;51.164;17.100;2022-08-21T19:51:59;3.20;;;1.70;;
40322;SDS011;26030;51.164;17.100;2022-08-21T19:57:04;4.40;;;2.30;;
40322;SDS011;26030;51.164;17.100;2022-08-21T20:02:12;3.80;;;2.10;;
40322;SDS011;26030;51.164;17.100;2022-08-21T20:07:17;3.00;;;1.60;;
40322;SDS011;26030;51.164;17.100;2022-08-21T20:12:28;6.00;;;1.80;;
40322;SDS011;26030;51.164;17.100;2022-08-21T20:17:31;2.70;;;1.70;;
40322;SDS011;26030;51.164;17.100;2022-08-21T20:22:35;5.30;;;2.30;;
40322;SDS011;26030;51.164;17.100;2022-08-21T20:27:39;3.60;;;1.90;;
40322;SDS011;26030;51.164;17.100;2022-08-21T20:32:44;3.30;;;1.90;;
40322;SDS011;26030;51.164;17.100;2022-08-21T20:37:47;2.90;;;1.90;;
40322;SDS011;26030;51.164;17.100;2022-08-21T20:43:03;4.00;;;2.30;;
40322;SDS011;26030;51.164;17.100;2022-08-21T20:48:10;3.40;;;2.00;;
40322;SDS011;26030;51.164;17.100;2022-08-21T20:59:09;8.10;;;2.20;;
40322;SDS011;26030;51.164;17.100;2022-08-21T21:09:37;4.10;;;2.00;;
40322;SDS011;26030;51.164;17.100;2022-08-21T21:14:46;3.20;;;1.80;;
40322;SDS011;26030;51.164;17.100;2022-08-21T21:20:00;3.90;;;2.20;;
40322;SDS011;26030;51.164;17.100;2022-08-21T21:30:44;3.00;;;1.70;;
40322;SDS011;26030;51.164;17.100;2022-08-21T21:36:09;3.90;;;2.00;;
40322;SDS011;26030;51.164;17.100;2022-08-21T21:41:26;4.00;;;2.20;;
40322;SDS011;26030;51.164;17.100;2022-08-21T21:46:58;3.90;;;2.30;;
40322;SDS011;26030;51.164;17.100;2022-08-21T22:08:10;4.40;;;1.90;;
40322;SDS011;26030;51.164;17.100;2022-08-21T22:13:26;4.40;;;2.30;;
40322;SDS011;26030;51.164;17.100;2022-08-21T22:18:34;5.90;;;2.00;;
40322;SDS011;26030;51.164;17.100;2022-08-21T22:23:50;4.30;;;2.10;;
40322;SDS011;26030;51.164;17.100;2022-08-21T22:28:53;6.80;;;2.10;;
40322;SDS011;26030;51.164;17.100;2022-08-21T22:34:07;5.90;;;2.20;;
40322;SDS011;26030;51.164;17.100;2022-08-21T22:39:30;4.70;;;2.20;;
40322;SDS011;26030;51.164;17.100;2022-08-21T22:45:05;6.10;;;2.30;;
40322;SDS011;26030;51.164;17.100;2022-08-21T22:50:20;4.30;;;2.20;;
40322;SDS011;26030;51.164;17.100;2022-08-21T22:55:38;4.20;;;2.20;;
40322;SDS011;26030;51.164;17.100;2022-08-21T23:06:42;5.00;;;2.10;;
40322;SDS011;26030;51.164;17.100;2022-08-21T23:11:46;5.20;;;2.70;;
40322;SDS011;26030;51.164;17.100;2022-08-21T23:28:03;5.50;;;2.60;;
40322;SDS011;26030;51.164;17.100;2022-08-21T23:56:17;7.00;;;2.50;;
